Weather History for Pittsburgh Allegheny Co., PA

Change the Weather History Date:

Sunday, February 2, 2014

  Actual Average Record
Temperature  
Mean Temperature 39 °F -  
Max Temperature 50 °F 43 °F 65 °F (1989)
Min Temperature 28 °F 26 °F 6 °F (2013)
Degree Days  
Heating Degree Days 26    
Moisture  
Dew Point 32 °F    
Average Humidity 86    
Maximum Humidity 93    
Minimum Humidity 36    
Precipitation  
Precipitation 0.30 in - - ()
Sea Level Pressure  
Sea Level Pressure 30.04 in    
Wind  
Wind Speed 7 mph (NNW)    
Max Wind Speed 14 mph    
Max Gust Speed 16 mph    
Visibility 4 miles    
Events Rain , Snow    
Averages and records for this station are not official NWS values.
T = Trace of Precipitation, MM = Missing Value Source: NWS Daily Summary

Daily Weather History Graph

Daily Weather History Graph

Search for Another Location

Airport:

Trip Planner

Search our weather history database for the weather conditions in past years. The results will help you decide how hot, cold, wet, or windy it might be!

Date:

Astronomy

Feb. 02, 2014 Rise Set
Actual Time 7:27 AM EST 5:39 PM EST
Civil Twilight 6:59 AM EST 6:08 PM EST
Nautical Twilight 6:26 AM EST 6:40 PM EST
Astronomical Twilight 5:54 AM EST 7:12 PM EST
Moon 8:52 AM EST (2/2) 9:22 PM EST (2/2)
Length of Visible Light 11h 08m
Length of Day
10h 11m
Waxing Crescent, 11% of the Moon is Illuminated
Feb 2
Waxing Crescent
Feb 6
First Quarter
Feb 14
Full
Feb 22
Last Quarter
Mar 1
New

Hourly Weather History & Observations

Time (EST) Temp. Windchill Dew Point Humidity Pressure Visibility Wind Dir Wind Speed Gust Speed Precip Events Conditions
12:53 AM 50.0 °F - 24.1 °F 36% 29.91 in 10.0 mi SSW 9.2 mph - N/A   Overcast
1:53 AM 48.9 °F - 25.0 °F 39% 29.92 in 10.0 mi WSW 5.8 mph - N/A   Overcast
2:53 AM 50.0 °F - 28.0 °F 43% 29.92 in 10.0 mi West 8.1 mph - 0.00 in   Overcast
3:53 AM 48.0 °F - 28.9 °F 48% 29.93 in 10.0 mi West 8.1 mph - 0.00 in Rain Light Rain
4:53 AM 45.0 °F 41.2 °F 36.0 °F 71% 29.94 in 10.0 mi West 6.9 mph - 0.00 in   Overcast
5:46 AM 44.6 °F 43.1 °F 37.4 °F 76% 29.91 in 10.0 mi WSW 3.5 mph - 0.00 in Rain Light Rain
5:53 AM 44.1 °F 42.5 °F 37.9 °F 79% 29.94 in 10.0 mi WSW 3.5 mph - 0.00 in   Overcast
6:39 AM 42.8 °F - 39.2 °F 87% 29.90 in 6.0 mi Calm Calm - 0.02 in Rain Light Rain
6:53 AM 43.0 °F 40.3 °F 39.9 °F 89% 29.94 in 8.0 mi WSW 4.6 mph - 0.03 in Rain Light Rain
7:01 AM 42.8 °F 39.3 °F 39.2 °F 87% 29.92 in 5.0 mi West 5.8 mph - 0.00 in Rain Light Rain
7:23 AM 42.8 °F 41.1 °F 39.2 °F 87% 29.92 in 4.0 mi WNW 3.5 mph - 0.01 in Rain Light Rain
7:36 AM 42.8 °F 40.1 °F 39.2 °F 87% 29.94 in 2.0 mi WNW 4.6 mph - 0.02 in Rain Light Rain
7:53 AM 43.0 °F 38.2 °F 39.9 °F 89% 29.99 in 2.0 mi NW 8.1 mph - 0.03 in Rain Light Rain
8:18 AM 42.8 °F 38.0 °F 39.2 °F 87% 29.97 in 3.0 mi NW 8.1 mph - 0.02 in Rain Light Rain
8:26 AM 42.8 °F 39.3 °F 39.2 °F 87% 29.97 in 2.5 mi NW 5.8 mph - 0.04 in Rain Light Rain
8:42 AM 41.0 °F 37.1 °F 39.2 °F 93% 29.97 in 1.8 mi NNW 5.8 mph - 0.10 in Rain Rain
8:53 AM 41.0 °F 37.1 °F 39.0 °F 93% 30.00 in 1.8 mi NNW 5.8 mph - 0.12 in Rain Light Rain
9:11 AM 41.0 °F 35.8 °F 37.4 °F 87% 29.98 in 3.0 mi NNW 8.1 mph - 0.02 in Rain Light Rain
9:26 AM 39.2 °F 33.6 °F 37.4 °F 93% 29.98 in 1.8 mi North 8.1 mph - 0.03 in Rain Light Rain
9:49 AM 39.2 °F 34.2 °F 35.6 °F 87% 30.00 in 3.0 mi NNW 6.9 mph - 0.04 in Rain Light Rain
9:53 AM 37.9 °F 32.1 °F 36.0 °F 93% 30.03 in 4.0 mi NNW 8.1 mph - 0.04 in Rain Light Rain
10:11 AM 37.4 °F 30.8 °F 35.6 °F 93% 30.00 in 2.5 mi North 9.2 mph - 0.01 in Rain Light Rain
10:18 AM 37.4 °F 30.8 °F 35.6 °F 93% 30.00 in 3.0 mi NNW 9.2 mph - 0.01 in Rain Light Rain
10:45 AM 37.4 °F 33.8 °F 35.6 °F 93% 30.00 in 3.0 mi NNW 4.6 mph - 0.03 in Rain Light Rain
10:53 AM 37.9 °F 33.5 °F 35.1 °F 89% 30.04 in 3.0 mi NNW 5.8 mph - 0.03 in Rain Light Rain
11:03 AM 37.4 °F 32.8 °F 35.6 °F 93% 30.01 in 3.0 mi NNW 5.8 mph - 0.00 in   Overcast
11:53 AM 37.9 °F - 35.1 °F 89% 30.02 in 3.0 mi Calm Calm - 0.01 in   Overcast
12:00 PM 37.4 °F 33.8 °F 35.6 °F 93% 29.99 in 1.8 mi North 4.6 mph - N/A   Overcast
12:26 PM 37.4 °F 33.8 °F 35.6 °F 93% 29.98 in 2.5 mi NNW 4.6 mph - N/A   Overcast
12:45 PM 37.4 °F 33.8 °F 35.6 °F 93% 29.97 in 3.0 mi NNW 4.6 mph - N/A   Overcast
12:53 PM 37.0 °F 32.4 °F 35.1 °F 93% 30.01 in 3.0 mi NNW 5.8 mph - N/A   Overcast
1:41 PM 35.6 °F 28.0 °F 33.8 °F 93% 29.98 in 6.0 mi NNW 10.4 mph - N/A   Overcast
1:53 PM 36.0 °F 28.5 °F 33.1 °F 89% 30.01 in 6.0 mi NNW 10.4 mph - N/A   Overcast
2:25 PM 35.6 °F 28.0 °F 32.0 °F 87% 29.99 in 2.0 mi NNW 10.4 mph - N/A   Overcast
2:32 PM 35.6 °F 28.0 °F 32.0 °F 87% 29.99 in 1.5 mi NNW 10.4 mph - 0.00 in   Overcast
2:40 PM 35.6 °F 27.5 °F 32.0 °F 87% 29.99 in 1.2 mi NNW 11.5 mph - 0.00 in   Overcast
2:53 PM 34.0 °F 25.5 °F 32.0 °F 92% 30.04 in 1.5 mi NNW 11.5 mph - 0.00 in   Overcast
3:32 PM 33.8 °F 24.3 °F 30.2 °F 87% 30.01 in 2.5 mi North 13.8 mph - 0.00 in   Overcast
3:41 PM 33.8 °F 27.0 °F 30.2 °F 87% 30.00 in 3.0 mi NNW 8.1 mph 16.1 mph 0.00 in   Overcast
3:53 PM 33.1 °F 26.9 °F 30.9 °F 92% 30.06 in 4.0 mi NNW 6.9 mph - 0.00 in   Overcast
4:32 PM 33.8 °F 27.0 °F 30.2 °F 87% 30.04 in 2.0 mi NW 8.1 mph - N/A   Overcast
4:45 PM 33.8 °F 25.8 °F 30.2 °F 87% 30.06 in 3.0 mi NNW 10.4 mph - N/A   Overcast
4:53 PM 33.1 °F 26.1 °F 30.0 °F 89% 30.10 in 1.8 mi NNW 8.1 mph - N/A   Overcast
5:17 PM 32.0 °F 24.2 °F 30.2 °F 93% 30.09 in 1.2 mi NW 9.2 mph - N/A   Overcast
5:26 PM 32.0 °F 24.2 °F 30.2 °F 93% 30.10 in 2.5 mi NNW 9.2 mph - N/A   Overcast
5:34 PM 32.0 °F 23.6 °F 30.2 °F 93% 30.10 in 3.0 mi NNW 10.4 mph 16.1 mph N/A   Overcast
5:53 PM 32.0 °F 23.0 °F 28.9 °F 88% 30.15 in 7.0 mi NNW 11.5 mph - N/A   Overcast
6:23 PM 32.0 °F 24.2 °F 28.4 °F 87% 30.11 in 2.0 mi North 9.2 mph - 0.00 in Snow Light Snow
6:28 PM 32.0 °F 26.4 °F 28.4 °F 87% 30.11 in 1.8 mi North 5.8 mph - 0.01 in Snow Light Snow
6:40 PM 32.0 °F 24.2 °F 28.4 °F 87% 30.12 in 2.0 mi North 9.2 mph - 0.01 in Snow Light Snow
6:50 PM 30.2 °F 23.4 °F 28.4 °F 93% 30.12 in 5.0 mi NNW 6.9 mph - 0.01 in Snow Light Snow
6:53 PM 30.9 °F 23.5 °F 28.0 °F 89% 30.17 in 5.0 mi North 8.1 mph - 0.01 in   Overcast
7:27 PM 32.0 °F 26.4 °F 28.4 °F 87% 30.15 in 2.5 mi NNW 5.8 mph - 0.00 in Snow Light Snow
7:32 PM 32.0 °F 26.4 °F 28.4 °F 87% 30.14 in 1.8 mi NNW 5.8 mph - 0.00 in Snow Light Snow
7:51 PM 30.2 °F 25.4 °F 28.4 °F 93% 30.12 in 0.8 mi North 4.6 mph - 0.01 in Snow Light Snow
7:53 PM 30.9 °F 26.2 °F 28.9 °F 92% 30.17 in 0.8 mi North 4.6 mph - 0.01 in Snow Light Snow
7:56 PM 30.2 °F 23.4 °F 28.4 °F 93% 30.13 in 1.0 mi NNW 6.9 mph - 0.01 in Snow Light Snow
8:13 PM 30.2 °F 24.3 °F 28.4 °F 93% 30.13 in 1.8 mi NNW 5.8 mph - 0.01 in Snow Light Snow
8:20 PM 30.2 °F 23.4 °F 28.4 °F 93% 30.14 in 2.5 mi NNW 6.9 mph - 0.01 in Snow Light Snow
8:53 PM 30.0 °F 23.2 °F 28.0 °F 92% 30.18 in 2.0 mi NNW 6.9 mph - 0.01 in Snow Light Snow
9:03 PM 30.2 °F 23.4 °F 28.4 °F 93% 30.13 in 1.8 mi NNW 6.9 mph - 0.00 in Snow Light Snow
9:18 PM 30.2 °F 25.4 °F 26.6 °F 86% 30.13 in 2.5 mi NNW 4.6 mph - 0.01 in Snow Light Snow
9:53 PM 30.0 °F 22.4 °F 26.1 °F 85% 30.19 in 4.0 mi NNW 8.1 mph - 0.01 in Snow Light Snow
10:03 PM 30.2 °F 23.4 °F 26.6 °F 86% 30.14 in 6.0 mi NNW 6.9 mph - 0.00 in Snow Light Snow
10:53 PM 28.9 °F 23.9 °F 26.1 °F 89% 30.17 in 3.0 mi NNW 4.6 mph - 0.00 in Snow Light Snow
11:53 PM 28.9 °F 21.1 °F 25.0 °F 85% 30.18 in 9.0 mi NNW 8.1 mph - 0.00 in   Overcast